Hervey City, Illinois
Current Conditions -  °F | °C
As of 12:54 PM on Tuesday 21 Oct 2014 (Local Time) from KDEC Reporting Station
Few Clouds Few Clouds  
Wind Chill: 60°   Ceiling: Unl
Heat Index: 60°   Visibility: 10mi
Dew Point: 44°   Wind: 12mph
Humidity: 55%   Direction: 20°NNE
Pressure: 30.15"   Gusts: NA
Location:  39.7516°N, 88.8516°W
Report Text: KDEC 211754Z 02010KT 10SM FEW038 16/07 A3015 RMK AO2 SLP210 T01560067 10156 20061 50001
Loading
Personal Weather Stations






























Interactive Weather Map
Tropical Storm Tracking
New forecast layout! Learn more

10-Day Weather Forecast

Advertisements
Track Severe Weather on mobile